sensor_id;sensor_type;location;lat;lon;timestamp;pressure;altitude;pressure_sealevel;temperature;humidity
11648;BME280;5880;52.342;9.662;2022-12-18T00:01:05;102378.41;;;-0.11;54.25
11648;BME280;5880;52.342;9.662;2022-12-18T00:03:35;102378.50;;;-0.13;54.29
11648;BME280;5880;52.342;9.662;2022-12-18T00:06:02;102382.03;;;-0.12;53.97
11648;BME280;5880;52.342;9.662;2022-12-18T00:08:28;102378.50;;;-0.13;54.18
11648;BME280;5880;52.342;9.662;2022-12-18T00:10:54;102368.59;;;-0.12;54.34
11648;BME280;5880;52.342;9.662;2022-12-18T00:13:20;102372.03;;;-0.10;54.36
11648;BME280;5880;52.342;9.662;2022-12-18T00:15:46;102386.31;;;-0.10;54.26
11648;BME280;5880;52.342;9.662;2022-12-18T00:18:12;102393.53;;;-0.10;54.19
11648;BME280;5880;52.342;9.662;2022-12-18T00:20:39;102390.75;;;-0.09;54.13
11648;BME280;5880;52.342;9.662;2022-12-18T00:23:06;102412.25;;;-0.09;54.18
11648;BME280;5880;52.342;9.662;2022-12-18T00:25:36;102410.31;;;-0.07;54.14
11648;BME280;5880;52.342;9.662;2022-12-18T00:28:05;102402.22;;;-0.07;54.00
11648;BME280;5880;52.342;9.662;2022-12-18T00:30:30;102399.53;;;-0.07;53.88
11648;BME280;5880;52.342;9.662;2022-12-18T00:32:57;102394.16;;;-0.07;53.89
11648;BME280;5880;52.342;9.662;2022-12-18T00:35:23;102385.72;;;-0.13;53.59
11648;BME280;5880;52.342;9.662;2022-12-18T00:37:49;102395.13;;;-0.08;53.97
11648;BME280;5880;52.342;9.662;2022-12-18T00:40:14;102396.22;;;-0.10;53.69
11648;BME280;5880;52.342;9.662;2022-12-18T00:42:40;102397.06;;;-0.10;53.58
11648;BME280;5880;52.342;9.662;2022-12-18T00:45:27;102405.38;;;-0.13;53.87
11648;BME280;5880;52.342;9.662;2022-12-18T00:47:54;102403.69;;;-0.14;53.65
11648;BME280;5880;52.342;9.662;2022-12-18T00:50:21;102409.06;;;-0.14;53.80
11648;BME280;5880;52.342;9.662;2022-12-18T00:52:47;102414.53;;;-0.15;53.87
11648;BME280;5880;52.342;9.662;2022-12-18T00:55:13;102420.91;;;-0.16;53.89
11648;BME280;5880;52.342;9.662;2022-12-18T00:57:40;102414.78;;;-0.18;53.66
11648;BME280;5880;52.342;9.662;2022-12-18T01:00:13;102408.44;;;-0.17;53.92
11648;BME280;5880;52.342;9.662;2022-12-18T01:02:40;102398.78;;;-0.20;53.82
11648;BME280;5880;52.342;9.662;2022-12-18T01:05:06;102396.09;;;-0.20;53.88
11648;BME280;5880;52.342;9.662;2022-12-18T01:07:32;102391.69;;;-0.21;53.82
11648;BME280;5880;52.342;9.662;2022-12-18T01:09:57;102394.38;;;-0.21;53.67
11648;BME280;5880;52.342;9.662;2022-12-18T01:12:23;102402.56;;;-0.23;53.58
11648;BME280;5880;52.342;9.662;2022-12-18T01:14:49;102412.31;;;-0.22;53.65
11648;BME280;5880;52.342;9.662;2022-12-18T01:17:14;102409.63;;;-0.22;53.66
11648;BME280;5880;52.342;9.662;2022-12-18T01:19:40;102414.25;;;-0.24;53.77
11648;BME280;5880;52.342;9.662;2022-12-18T01:22:06;102410.88;;;-0.26;53.62
11648;BME280;5880;52.342;9.662;2022-12-18T01:24:31;102402.91;;;-0.27;53.76
11648;BME280;5880;52.342;9.662;2022-12-18T01:26:57;102394.09;;;-0.29;53.58
11648;BME280;5880;52.342;9.662;2022-12-18T01:29:23;102387.03;;;-0.30;53.72
11648;BME280;5880;52.342;9.662;2022-12-18T01:31:49;102399.59;;;-0.31;53.79
11648;BME280;5880;52.342;9.662;2022-12-18T01:34:15;102405.94;;;-0.32;53.96
11648;BME280;5880;52.342;9.662;2022-12-18T01:36:40;102407.91;;;-0.34;53.81
11648;BME280;5880;52.342;9.662;2022-12-18T01:39:15;102410.59;;;-0.34;53.72
11648;BME280;5880;52.342;9.662;2022-12-18T01:41:41;102415.97;;;-0.34;54.02
11648;BME280;5880;52.342;9.662;2022-12-18T01:48:00;102417.06;;;-0.36;53.81
11648;BME280;5880;52.342;9.662;2022-12-18T01:50:32;102414.47;;;-0.38;53.93
11648;BME280;5880;52.342;9.662;2022-12-18T01:53:19;102414.47;;;-0.38;53.99
11648;BME280;5880;52.342;9.662;2022-12-18T01:55:52;102429.75;;;-0.38;54.20
11648;BME280;5880;52.342;9.662;2022-12-18T01:58:24;102429.25;;;-0.44;54.06
11648;BME280;5880;52.342;9.662;2022-12-18T02:00:54;102427.06;;;-0.38;53.95
11648;BME280;5880;52.342;9.662;2022-12-18T02:03:20;102423.53;;;-0.39;53.88
11648;BME280;5880;52.342;9.662;2022-12-18T02:09:11;102432.53;;;-0.40;53.91
11648;BME280;5880;52.342;9.662;2022-12-18T02:12:02;102438.03;;;-0.41;53.89
11648;BME280;5880;52.342;9.662;2022-12-18T02:17:17;102432.78;;;-0.43;53.92
11648;BME280;5880;52.342;9.662;2022-12-18T02:20:16;102439.13;;;-0.44;53.96
11648;BME280;5880;52.342;9.662;2022-12-18T02:23:09;102435.72;;;-0.46;53.72
11648;BME280;5880;52.342;9.662;2022-12-18T02:25:52;102433.97;;;-0.47;53.70
11648;BME280;5880;52.342;9.662;2022-12-18T02:28:23;102435.81;;;-0.48;53.74
11648;BME280;5880;52.342;9.662;2022-12-18T02:30:56;102433.13;;;-0.48;53.76
11648;BME280;5880;52.342;9.662;2022-12-18T02:33:27;102433.25;;;-0.49;53.83
11648;BME280;5880;52.342;9.662;2022-12-18T02:35:55;102435.94;;;-0.49;54.06
11648;BME280;5880;52.342;9.662;2022-12-18T02:38:24;102426.16;;;-0.50;53.56
11648;BME280;5880;52.342;9.662;2022-12-18T02:40:53;102418.19;;;-0.52;53.67
11648;BME280;5880;52.342;9.662;2022-12-18T02:43:19;102415.66;;;-0.53;53.74
11648;BME280;5880;52.342;9.662;2022-12-18T02:45:57;102416.59;;;-0.54;53.73
11648;BME280;5880;52.342;9.662;2022-12-18T02:48:33;102405.13;;;-0.56;53.60
11648;BME280;5880;52.342;9.662;2022-12-18T02:51:25;102400.22;;;-0.62;53.75
11648;BME280;5880;52.342;9.662;2022-12-18T02:54:21;102409.88;;;-0.60;53.55
11648;BME280;5880;52.342;9.662;2022-12-18T02:56:55;102398.84;;;-0.68;53.70
11648;BME280;5880;52.342;9.662;2022-12-18T02:59:40;102407.44;;;-0.63;53.78
11648;BME280;5880;52.342;9.662;2022-12-18T03:02:32;102415.59;;;-0.65;53.77
11648;BME280;5880;52.342;9.662;2022-12-18T03:05:22;102416.59;;;-0.66;53.94
11648;BME280;5880;52.342;9.662;2022-12-18T03:07:58;102406.91;;;-0.68;53.91
11648;BME280;5880;52.342;9.662;2022-12-18T03:10:32;102409.47;;;-0.67;53.96
11648;BME280;5880;52.342;9.662;2022-12-18T03:13:33;102407.66;;;-0.66;53.75
11648;BME280;5880;52.342;9.662;2022-12-18T03:16:02;102399.81;;;-0.69;53.81
11648;BME280;5880;52.342;9.662;2022-12-18T03:21:06;102397.13;;;-0.69;53.78
11648;BME280;5880;52.342;9.662;2022-12-18T03:23:48;102396.41;;;-0.71;53.86
11648;BME280;5880;52.342;9.662;2022-12-18T03:26:21;102381.72;;;-0.78;54.07
11648;BME280;5880;52.342;9.662;2022-12-18T03:28:53;102374.50;;;-0.78;53.82
11648;BME280;5880;52.342;9.662;2022-12-18T03:31:24;102388.56;;;-0.74;53.86
11648;BME280;5880;52.342;9.662;2022-12-18T03:33:57;102387.84;;;-0.76;53.90
11648;BME280;5880;52.342;9.662;2022-12-18T03:36:24;102384.50;;;-0.80;54.10
11648;BME280;5880;52.342;9.662;2022-12-18T03:38:50;102408.13;;;-0.72;54.17
11648;BME280;5880;52.342;9.662;2022-12-18T03:41:33;102399.09;;;-0.71;53.89
11648;BME280;5880;52.342;9.662;2022-12-18T03:44:23;102408.00;;;-0.71;54.03
11648;BME280;5880;52.342;9.662;2022-12-18T03:50:12;102402.84;;;-0.74;54.10
11648;BME280;5880;52.342;9.662;2022-12-18T03:53:00;102408.13;;;-0.72;54.24
11648;BME280;5880;52.342;9.662;2022-12-18T03:55:34;102405.44;;;-0.72;53.88
11648;BME280;5880;52.342;9.662;2022-12-18T03:58:03;102424.97;;;-0.70;53.84
11648;BME280;5880;52.342;9.662;2022-12-18T04:00:31;102414.25;;;-0.70;54.12
11648;BME280;5880;52.342;9.662;2022-12-18T04:03:00;102409.06;;;-0.73;53.74
11648;BME280;5880;52.342;9.662;2022-12-18T04:05:29;102402.75;;;-0.72;53.95
11648;BME280;5880;52.342;9.662;2022-12-18T04:07:57;102406.41;;;-0.73;53.77
11648;BME280;5880;52.342;9.662;2022-12-18T04:10:23;102396.50;;;-0.73;53.68
11648;BME280;5880;52.342;9.662;2022-12-18T04:12:48;102401.03;;;-0.73;54.11
11648;BME280;5880;52.342;9.662;2022-12-18T04:15:14;102400.06;;;-0.72;53.95
11648;BME280;5880;52.342;9.662;2022-12-18T04:17:49;102413.34;;;-0.71;54.03
11648;BME280;5880;52.342;9.662;2022-12-18T04:20:15;102411.75;;;-0.73;53.90
11648;BME280;5880;52.342;9.662;2022-12-18T04:22:41;102405.53;;;-0.74;53.96
11648;BME280;5880;52.342;9.662;2022-12-18T04:25:07;102412.75;;;-0.74;53.82
11648;BME280;5880;52.342;9.662;2022-12-18T04:27:33;102401.16;;;-0.75;54.29
11648;BME280;5880;52.342;9.662;2022-12-18T04:29:59;102402.84;;;-0.74;54.15
11648;BME280;5880;52.342;9.662;2022-12-18T04:32:25;102398.47;;;-0.75;54.30
11648;BME280;5880;52.342;9.662;2022-12-18T04:34:51;102404.44;;;-0.71;54.05
11648;BME280;5880;52.342;9.662;2022-12-18T04:37:17;102392.34;;;-0.77;54.01
11648;BME280;5880;52.342;9.662;2022-12-18T04:39:43;102405.53;;;-0.74;54.13
11648;BME280;5880;52.342;9.662;2022-12-18T04:42:08;102404.69;;;-0.74;53.93
11648;BME280;5880;52.342;9.662;2022-12-18T04:44:34;102402.13;;;-0.76;53.93
11648;BME280;5880;52.342;9.662;2022-12-18T04:47:00;102389.66;;;-0.77;54.17
11648;BME280;5880;52.342;9.662;2022-12-18T04:49:25;102384.66;;;-0.81;53.94
11648;BME280;5880;52.342;9.662;2022-12-18T04:51:51;102399.53;;;-0.77;53.92
11648;BME280;5880;52.342;9.662;2022-12-18T04:54:20;102407.59;;;-0.77;54.04
11648;BME280;5880;52.342;9.662;2022-12-18T04:56:45;102407.59;;;-0.77;54.02
11648;BME280;5880;52.342;9.662;2022-12-18T04:59:11;102410.41;;;-0.79;54.01
11648;BME280;5880;52.342;9.662;2022-12-18T05:01:37;102405.88;;;-0.78;54.18
11648;BME280;5880;52.342;9.662;2022-12-18T05:04:03;102391.47;;;-0.77;54.19
11648;BME280;5880;52.342;9.662;2022-12-18T05:06:28;102391.38;;;-0.76;54.27
11648;BME280;5880;52.342;9.662;2022-12-18T05:08:54;102395.78;;;-0.75;54.17
11648;BME280;5880;52.342;9.662;2022-12-18T05:11:20;102396.63;;;-0.74;54.16
11648;BME280;5880;52.342;9.662;2022-12-18T05:13:46;102414.59;;;-0.75;53.88
11648;BME280;5880;52.342;9.662;2022-12-18T05:16:13;102412.75;;;-0.74;53.81
11648;BME280;5880;52.342;9.662;2022-12-18T05:18:39;102412.00;;;-0.76;54.03
11648;BME280;5880;52.342;9.662;2022-12-18T05:21:05;102417.38;;;-0.76;53.96
11648;BME280;5880;52.342;9.662;2022-12-18T05:23:34;102421.91;;;-0.77;53.93
11648;BME280;5880;52.342;9.662;2022-12-18T05:26:03;102408.91;;;-0.83;54.00
11648;BME280;5880;52.342;9.662;2022-12-18T05:28:31;102410.50;;;-0.80;53.98
11648;BME280;5880;52.342;9.662;2022-12-18T05:31:00;102417.47;;;-0.78;54.22
11648;BME280;5880;52.342;9.662;2022-12-18T05:33:31;102423.84;;;-0.79;53.96
11648;BME280;5880;52.342;9.662;2022-12-18T05:36:00;102428.34;;;-0.79;54.05
11648;BME280;5880;52.342;9.662;2022-12-18T05:38:27;102429.22;;;-0.79;54.24
11648;BME280;5880;52.342;9.662;2022-12-18T05:40:55;102427.38;;;-0.78;53.83
11648;BME280;5880;52.342;9.662;2022-12-18T05:43:22;102428.22;;;-0.78;54.41
11648;BME280;5880;52.342;9.662;2022-12-18T05:45:49;102434.44;;;-0.77;54.20
11648;BME280;5880;52.342;9.662;2022-12-18T05:48:16;102436.28;;;-0.78;53.65
11648;BME280;5880;52.342;9.662;2022-12-18T05:50:45;102435.31;;;-0.77;54.15
11648;BME280;5880;52.342;9.662;2022-12-18T05:53:14;102430.06;;;-0.78;53.80
11648;BME280;5880;52.342;9.662;2022-12-18T05:55:42;102436.28;;;-0.78;53.92
11648;BME280;5880;52.342;9.662;2022-12-18T05:58:10;102434.91;;;-0.83;53.99
11648;BME280;5880;52.342;9.662;2022-12-18T06:00:39;102435.44;;;-0.78;53.79
11648;BME280;5880;52.342;9.662;2022-12-18T06:03:06;102438.13;;;-0.78;54.26
11648;BME280;5880;52.342;9.662;2022-12-18T06:05:38;102439.94;;;-0.79;54.21
11648;BME280;5880;52.342;9.662;2022-12-18T06:08:04;102438.22;;;-0.80;54.14
11648;BME280;5880;52.342;9.662;2022-12-18T06:10:31;102444.47;;;-0.79;54.20
11648;BME280;5880;52.342;9.662;2022-12-18T06:12:57;102447.16;;;-0.79;53.90
11648;BME280;5880;52.342;9.662;2022-12-18T06:15:22;102443.72;;;-0.81;54.00
11648;BME280;5880;52.342;9.662;2022-12-18T06:17:48;102440.28;;;-0.83;54.01
11648;BME280;5880;52.342;9.662;2022-12-18T06:20:13;102441.97;;;-0.82;53.91
11648;BME280;5880;52.342;9.662;2022-12-18T06:22:39;102425.47;;;-0.89;54.20
11648;BME280;5880;52.342;9.662;2022-12-18T06:25:06;102444.81;;;-0.84;54.21
11648;BME280;5880;52.342;9.662;2022-12-18T06:27:32;102439.44;;;-0.84;53.94
11648;BME280;5880;52.342;9.662;2022-12-18T06:29:59;102442.22;;;-0.86;54.18
11648;BME280;5880;52.342;9.662;2022-12-18T06:32:26;102440.63;;;-0.88;54.16
11648;BME280;5880;52.342;9.662;2022-12-18T06:34:52;102440.38;;;-0.85;54.04
11648;BME280;5880;52.342;9.662;2022-12-18T06:37:18;102437.69;;;-0.85;54.41
11648;BME280;5880;52.342;9.662;2022-12-18T06:39:44;102442.56;;;-0.90;54.18
11648;BME280;5880;52.342;9.662;2022-12-18T06:42:09;102448.44;;;-0.85;54.41
11648;BME280;5880;52.342;9.662;2022-12-18T06:44:35;102443.22;;;-0.87;54.31
11648;BME280;5880;52.342;9.662;2022-12-18T06:47:01;102448.69;;;-0.88;54.27
11648;BME280;5880;52.342;9.662;2022-12-18T06:49:26;102453.81;;;-0.85;54.22
11648;BME280;5880;52.342;9.662;2022-12-18T06:51:52;102452.88;;;-0.84;54.51
11648;BME280;5880;52.342;9.662;2022-12-18T06:54:18;102450.03;;;-0.82;54.11
11648;BME280;5880;52.342;9.662;2022-12-18T06:56:46;102459.84;;;-0.81;54.03
11648;BME280;5880;52.342;9.662;2022-12-18T06:59:13;102444.91;;;-0.86;54.00
11648;BME280;5880;52.342;9.662;2022-12-18T07:01:39;102458.97;;;-0.82;54.20
11648;BME280;5880;52.342;9.662;2022-12-18T07:04:04;102460.69;;;-0.81;54.03
11648;BME280;5880;52.342;9.662;2022-12-18T07:06:30;102458.84;;;-0.80;53.83
11648;BME280;5880;52.342;9.662;2022-12-18T07:08:56;102460.69;;;-0.81;53.99
11648;BME280;5880;52.342;9.662;2022-12-18T07:11:22;102466.16;;;-0.82;54.00
11648;BME280;5880;52.342;9.662;2022-12-18T07:13:48;102467.88;;;-0.81;54.03
11648;BME280;5880;52.342;9.662;2022-12-18T07:16:17;102477.78;;;-0.82;54.25
11648;BME280;5880;52.342;9.662;2022-12-18T07:18:44;102476.78;;;-0.81;54.13
11648;BME280;5880;52.342;9.662;2022-12-18T07:21:14;102479.47;;;-0.81;54.30
11648;BME280;5880;52.342;9.662;2022-12-18T07:23:40;102487.63;;;-0.82;54.18
11648;BME280;5880;52.342;9.662;2022-12-18T07:26:10;102491.22;;;-0.82;54.15
11648;BME280;5880;52.342;9.662;2022-12-18T07:28:38;102491.22;;;-0.82;54.29
11648;BME280;5880;52.342;9.662;2022-12-18T07:31:12;102490.22;;;-0.81;54.48
11648;BME280;5880;52.342;9.662;2022-12-18T07:33:38;102496.44;;;-0.80;54.62
11648;BME280;5880;52.342;9.662;2022-12-18T07:36:07;102498.19;;;-0.79;54.58
11648;BME280;5880;52.342;9.662;2022-12-18T07:38:35;102507.09;;;-0.79;54.23
11648;BME280;5880;52.342;9.662;2022-12-18T07:41:10;102500.22;;;-0.83;54.36
11648;BME280;5880;52.342;9.662;2022-12-18T07:43:37;102509.13;;;-0.82;54.08
11648;BME280;5880;52.342;9.662;2022-12-18T07:46:04;102508.16;;;-0.81;54.23
11648;BME280;5880;52.342;9.662;2022-12-18T07:48:30;102502.81;;;-0.81;54.35
11648;BME280;5880;52.342;9.662;2022-12-18T07:51:05;102505.00;;;-0.75;54.39
11648;BME280;5880;52.342;9.662;2022-12-18T07:53:34;102503.22;;;-0.75;54.34
11648;BME280;5880;52.342;9.662;2022-12-18T07:56:03;102503.22;;;-0.75;54.58
11648;BME280;5880;52.342;9.662;2022-12-18T07:58:31;102496.84;;;-0.74;54.39
11648;BME280;5880;52.342;9.662;2022-12-18T08:01:11;102490.63;;;-0.74;54.59
11648;BME280;5880;52.342;9.662;2022-12-18T08:03:39;102481.59;;;-0.73;54.93
11648;BME280;5880;52.342;9.662;2022-12-18T08:06:08;102489.53;;;-0.72;54.45
11648;BME280;5880;52.342;9.662;2022-12-18T08:08:35;102492.13;;;-0.70;54.80
11648;BME280;5880;52.342;9.662;2022-12-18T08:11:02;102476.22;;;-0.73;54.54
11648;BME280;5880;52.342;9.662;2022-12-18T08:13:28;102486.41;;;-0.66;54.65
11648;BME280;5880;52.342;9.662;2022-12-18T08:16:06;102492.50;;;-0.64;54.57
11648;BME280;5880;52.342;9.662;2022-12-18T08:18:34;102480.81;;;-0.62;54.49
11648;BME280;5880;52.342;9.662;2022-12-18T08:21:11;102483.25;;;-0.59;54.73
11648;BME280;5880;52.342;9.662;2022-12-18T08:23:37;102486.78;;;-0.59;54.53
11648;BME280;5880;52.342;9.662;2022-12-18T08:26:03;102480.34;;;-0.56;54.64
11648;BME280;5880;52.342;9.662;2022-12-18T08:28:29;102478.41;;;-0.54;54.70
11648;BME280;5880;52.342;9.662;2022-12-18T08:30:55;102480.00;;;-0.52;54.78
11648;BME280;5880;52.342;9.662;2022-12-18T08:33:21;102478.94;;;-0.49;54.74
11648;BME280;5880;52.342;9.662;2022-12-18T08:35:46;102472.47;;;-0.47;54.63
11648;BME280;5880;52.342;9.662;2022-12-18T08:38:12;102468.78;;;-0.46;54.58
11648;BME280;5880;52.342;9.662;2022-12-18T08:40:38;102465.03;;;-0.43;54.86
11648;BME280;5880;52.342;9.662;2022-12-18T08:43:03;102456.84;;;-0.41;55.08
11648;BME280;5880;52.342;9.662;2022-12-18T08:45:48;102467.72;;;-0.43;54.83
11648;BME280;5880;52.342;9.662;2022-12-18T08:48:13;102456.22;;;-0.45;54.94
11648;BME280;5880;52.342;9.662;2022-12-18T08:50:39;102459.19;;;-0.37;55.20
11648;BME280;5880;52.342;9.662;2022-12-18T08:53:05;102461.66;;;-0.34;55.14
11648;BME280;5880;52.342;9.662;2022-12-18T08:55:31;102468.50;;;-0.30;55.40
11648;BME280;5880;52.342;9.662;2022-12-18T08:57:57;102465.47;;;-0.25;55.14
11648;BME280;5880;52.342;9.662;2022-12-18T09:00:22;102470.72;;;-0.24;55.31
11648;BME280;5880;52.342;9.662;2022-12-18T09:02:48;102460.50;;;-0.18;55.34
11648;BME280;5880;52.342;9.662;2022-12-18T09:05:14;102453.78;;;-0.13;55.51
11648;BME280;5880;52.342;9.662;2022-12-18T09:07:39;102458.69;;;-0.07;55.36
11648;BME280;5880;52.342;9.662;2022-12-18T09:10:06;102456.59;;;-0.03;55.44
11648;BME280;5880;52.342;9.662;2022-12-18T09:12:31;102450.28;;;-0.02;55.66
11648;BME280;5880;52.342;9.662;2022-12-18T09:14:57;102449.44;;;0.09;55.97
11648;BME280;5880;52.342;9.662;2022-12-18T09:17:23;102451.75;;;0.13;56.03
11648;BME280;5880;52.342;9.662;2022-12-18T09:19:49;102449.44;;;0.20;55.83
11648;BME280;5880;52.342;9.662;2022-12-18T09:22:14;102443.59;;;0.26;55.96
11648;BME280;5880;52.342;9.662;2022-12-18T09:24:40;102439.56;;;0.32;55.94
11648;BME280;5880;52.342;9.662;2022-12-18T09:27:06;102432.97;;;0.36;55.83
11648;BME280;5880;52.342;9.662;2022-12-18T09:29:32;102437.84;;;0.42;55.90
11648;BME280;5880;52.342;9.662;2022-12-18T09:31:58;102447.28;;;0.48;55.95
11648;BME280;5880;52.342;9.662;2022-12-18T09:34:23;102433.56;;;0.51;56.07
11648;BME280;5880;52.342;9.662;2022-12-18T09:36:50;102425.50;;;0.51;55.81
11648;BME280;5880;52.342;9.662;2022-12-18T09:39:16;102439.06;;;0.60;56.11
11648;BME280;5880;52.342;9.662;2022-12-18T09:41:53;102438.59;;;0.67;56.04
11648;BME280;5880;52.342;9.662;2022-12-18T09:44:28;102439.19;;;0.70;56.19
11648;BME280;5880;52.342;9.662;2022-12-18T09:49:49;102458.03;;;0.81;56.26
11648;BME280;5880;52.342;9.662;2022-12-18T09:52:34;102457.53;;;0.88;56.10
11648;BME280;5880;52.342;9.662;2022-12-18T09:58:49;102478.72;;;1.03;56.42
11648;BME280;5880;52.342;9.662;2022-12-18T10:01:24;102459.34;;;1.10;56.75
11648;BME280;5880;52.342;9.662;2022-12-18T10:03:50;102460.53;;;1.17;56.73
11648;BME280;5880;52.342;9.662;2022-12-18T10:07:06;102460.66;;;1.26;56.56
11648;BME280;5880;52.342;9.662;2022-12-18T10:09:45;102455.59;;;1.33;56.81
11648;BME280;5880;52.342;9.662;2022-12-18T10:12:44;102463.91;;;1.41;56.87
11648;BME280;5880;52.342;9.662;2022-12-18T10:18:59;102461.03;;;1.54;56.52
11648;BME280;5880;52.342;9.662;2022-12-18T10:27:26;102451.56;;;1.71;56.58
11648;BME280;5880;52.342;9.662;2022-12-18T10:29:53;102446.47;;;1.78;56.81
11648;BME280;5880;52.342;9.662;2022-12-18T10:32:27;102443.16;;;1.85;56.77
11648;BME280;5880;52.342;9.662;2022-12-18T10:34:56;102447.88;;;1.93;56.88
11648;BME280;5880;52.342;9.662;2022-12-18T10:37:26;102456.31;;;2.00;56.93
11648;BME280;5880;52.342;9.662;2022-12-18T10:40:13;102447.94;;;2.03;56.59
11648;BME280;5880;52.342;9.662;2022-12-18T10:42:39;102453.56;;;2.11;56.35
11648;BME280;5880;52.342;9.662;2022-12-18T10:45:16;102444.06;;;2.17;56.15
11648;BME280;5880;52.342;9.662;2022-12-18T10:47:48;102450.06;;;2.20;56.77
11648;BME280;5880;52.342;9.662;2022-12-18T10:50:29;102446.81;;;2.26;56.40
11648;BME280;5880;52.342;9.662;2022-12-18T10:52:59;102444.56;;;2.31;56.41
11648;BME280;5880;52.342;9.662;2022-12-18T10:55:48;102431.38;;;2.38;56.86
11648;BME280;5880;52.342;9.662;2022-12-18T10:58:30;102432.72;;;2.44;56.38
11648;BME280;5880;52.342;9.662;2022-12-18T11:01:16;102435.00;;;2.48;56.18
11648;BME280;5880;52.342;9.662;2022-12-18T11:06:20;102410.88;;;2.57;56.63
11648;BME280;5880;52.342;9.662;2022-12-18T11:09:20;102404.22;;;2.61;56.06
11648;BME280;5880;52.342;9.662;2022-12-18T11:11:53;102407.34;;;2.66;56.01
11648;BME280;5880;52.342;9.662;2022-12-18T11:14:28;102415.16;;;2.69;56.54
11648;BME280;5880;52.342;9.662;2022-12-18T11:16:56;102417.47;;;2.73;55.98
11648;BME280;5880;52.342;9.662;2022-12-18T11:19:39;102414.34;;;2.78;56.17
11648;BME280;5880;52.342;9.662;2022-12-18T11:27:39;102411.84;;;2.86;56.36
11648;BME280;5880;52.342;9.662;2022-12-18T11:30:32;102413.41;;;2.89;56.16
11648;BME280;5880;52.342;9.662;2022-12-18T11:35:51;102403.16;;;2.92;56.02
11648;BME280;5880;52.342;9.662;2022-12-18T11:38:24;102400.19;;;2.95;56.24
11648;BME280;5880;52.342;9.662;2022-12-18T11:41:16;102394.94;;;2.94;55.59
11648;BME280;5880;52.342;9.662;2022-12-18T11:43:59;102380.16;;;2.98;55.97
11648;BME280;5880;52.342;9.662;2022-12-18T11:46:39;102376.31;;;3.01;56.07
11648;BME280;5880;52.342;9.662;2022-12-18T11:49:27;102375.31;;;3.02;55.67
11648;BME280;5880;52.342;9.662;2022-12-18T11:54:34;102350.56;;;2.96;55.74
11648;BME280;5880;52.342;9.662;2022-12-18T11:57:34;102354.56;;;3.02;56.00
11648;BME280;5880;52.342;9.662;2022-12-18T12:03:13;102337.47;;;3.02;55.22
11648;BME280;5880;52.342;9.662;2022-12-18T12:08:41;102324.41;;;2.97;55.37
11648;BME280;5880;52.342;9.662;2022-12-18T12:11:41;102320.00;;;2.96;55.11
11648;BME280;5880;52.342;9.662;2022-12-18T12:14:49;102320.13;;;2.94;55.35
11648;BME280;5880;52.342;9.662;2022-12-18T12:17:48;102320.28;;;2.93;55.76
11648;BME280;5880;52.342;9.662;2022-12-18T12:26:10;102307.63;;;2.93;55.48
11648;BME280;5880;52.342;9.662;2022-12-18T12:39:48;102290.28;;;2.96;55.52
11648;BME280;5880;52.342;9.662;2022-12-18T12:42:38;102283.03;;;2.96;55.69
11648;BME280;5880;52.342;9.662;2022-12-18T12:45:42;102285.16;;;3.03;55.52
11648;BME280;5880;52.342;9.662;2022-12-18T12:48:28;102261.84;;;3.02;55.90
11648;BME280;5880;52.342;9.662;2022-12-18T12:51:00;102268.38;;;3.09;55.39
11648;BME280;5880;52.342;9.662;2022-12-18T12:53:34;102256.28;;;3.13;55.66
11648;BME280;5880;52.342;9.662;2022-12-18T12:56:03;102262.28;;;3.16;55.34
11648;BME280;5880;52.342;9.662;2022-12-18T12:59:02;102284.19;;;3.23;55.71
11648;BME280;5880;52.342;9.662;2022-12-18T13:04:39;102270.22;;;3.28;55.19
11648;BME280;5880;52.342;9.662;2022-12-18T13:10:36;102252.69;;;3.32;55.12
11648;BME280;5880;52.342;9.662;2022-12-18T13:13:09;102249.03;;;3.33;55.57
11648;BME280;5880;52.342;9.662;2022-12-18T13:15:41;102253.41;;;3.34;54.91
11648;BME280;5880;52.342;9.662;2022-12-18T13:20:49;102275.44;;;3.39;55.12
11648;BME280;5880;52.342;9.662;2022-12-18T13:31:11;102271.91;;;3.38;55.00
11648;BME280;5880;52.342;9.662;2022-12-18T13:33:47;102270.91;;;3.40;54.85
11648;BME280;5880;52.342;9.662;2022-12-18T13:36:29;102268.22;;;3.40;55.14
11648;BME280;5880;52.342;9.662;2022-12-18T13:41:43;102267.50;;;3.37;54.81
11648;BME280;5880;52.342;9.662;2022-12-18T13:47:01;102262.22;;;3.36;54.54
11648;BME280;5880;52.342;9.662;2022-12-18T13:49:39;102258.81;;;3.34;54.40
11648;BME280;5880;52.342;9.662;2022-12-18T13:52:24;102252.56;;;3.33;54.46
11648;BME280;5880;52.342;9.662;2022-12-18T13:54:56;102242.72;;;3.32;54.24
11648;BME280;5880;52.342;9.662;2022-12-18T13:57:38;102246.44;;;3.31;54.51
11648;BME280;5880;52.342;9.662;2022-12-18T14:02:48;102239.91;;;3.24;54.30
11648;BME280;5880;52.342;9.662;2022-12-18T14:05:36;102239.06;;;3.24;54.49
11648;BME280;5880;52.342;9.662;2022-12-18T14:08:12;102231.94;;;3.23;54.05
11648;BME280;5880;52.342;9.662;2022-12-18T14:10:45;102225.69;;;3.22;54.49
11648;BME280;5880;52.342;9.662;2022-12-18T14:13:29;102224.13;;;3.20;53.97
11648;BME280;5880;52.342;9.662;2022-12-18T14:15:57;102220.59;;;3.19;53.80
11648;BME280;5880;52.342;9.662;2022-12-18T14:18:48;102206.50;;;3.15;53.72
11648;BME280;5880;52.342;9.662;2022-12-18T14:21:24;102197.97;;;3.10;53.73
11648;BME280;5880;52.342;9.662;2022-12-18T14:24:16;102202.84;;;3.07;53.95
11648;BME280;5880;52.342;9.662;2022-12-18T14:26:43;102182.38;;;2.94;53.89
11648;BME280;5880;52.342;9.662;2022-12-18T14:29:28;102188.34;;;2.98;53.63
11648;BME280;5880;52.342;9.662;2022-12-18T14:32:19;102186.38;;;2.90;53.94
11648;BME280;5880;52.342;9.662;2022-12-18T14:34:53;102183.81;;;2.89;54.02
11648;BME280;5880;52.342;9.662;2022-12-18T14:37:23;102183.09;;;2.87;53.91
11648;BME280;5880;52.342;9.662;2022-12-18T14:42:18;102186.53;;;2.79;53.86
11648;BME280;5880;52.342;9.662;2022-12-18T14:44:44;102167.47;;;2.71;53.36
11648;BME280;5880;52.342;9.662;2022-12-18T14:47:15;102164.22;;;2.67;53.14
11648;BME280;5880;52.342;9.662;2022-12-18T14:49:42;102166.91;;;2.67;53.28
11648;BME280;5880;52.342;9.662;2022-12-18T14:52:27;102162.78;;;2.63;53.55
11648;BME280;5880;52.342;9.662;2022-12-18T14:54:54;102160.50;;;2.59;53.42
11648;BME280;5880;52.342;9.662;2022-12-18T14:57:28;102163.34;;;2.57;53.44
11648;BME280;5880;52.342;9.662;2022-12-18T15:00:20;102159.94;;;2.55;53.34
11648;BME280;5880;52.342;9.662;2022-12-18T15:02:57;102170.19;;;2.51;53.45